sensor_id;sensor_type;location;lat;lon;timestamp;temperature;humidity
11387;DHT22;5748;53.102;8.456;2023-07-02T00:02:14;20.00;63.40
11387;DHT22;5748;53.102;8.456;2023-07-02T00:04:41;20.00;63.40
11387;DHT22;5748;53.102;8.456;2023-07-02T00:07:08;20.00;63.60
11387;DHT22;5748;53.102;8.456;2023-07-02T00:09:35;19.90;63.40
11387;DHT22;5748;53.102;8.456;2023-07-02T00:12:04;20.00;63.60
11387;DHT22;5748;53.102;8.456;2023-07-02T00:14:31;19.90;63.70
11387;DHT22;5748;53.102;8.456;2023-07-02T00:16:59;19.90;63.70
11387;DHT22;5748;53.102;8.456;2023-07-02T00:19:26;20.00;63.70
11387;DHT22;5748;53.102;8.456;2023-07-02T00:21:53;19.90;63.70
11387;DHT22;5748;53.102;8.456;2023-07-02T00:24:20;19.90;63.60
11387;DHT22;5748;53.102;8.456;2023-07-02T00:26:47;20.00;63.70
11387;DHT22;5748;53.102;8.456;2023-07-02T00:29:16;20.00;63.70
11387;DHT22;5748;53.102;8.456;2023-07-02T00:31:42;20.00;63.80
11387;DHT22;5748;53.102;8.456;2023-07-02T00:34:09;20.00;63.70
11387;DHT22;5748;53.102;8.456;2023-07-02T00:36:36;20.00;63.70
11387;DHT22;5748;53.102;8.456;2023-07-02T00:39:03;20.00;63.70
11387;DHT22;5748;53.102;8.456;2023-07-02T00:41:30;20.00;63.70
11387;DHT22;5748;53.102;8.456;2023-07-02T00:43:57;20.00;63.70
11387;DHT22;5748;53.102;8.456;2023-07-02T00:46:25;20.00;63.80
11387;DHT22;5748;53.102;8.456;2023-07-02T00:48:53;20.00;63.80
11387;DHT22;5748;53.102;8.456;2023-07-02T00:51:22;20.00;63.90
11387;DHT22;5748;53.102;8.456;2023-07-02T00:53:51;20.00;63.80
11387;DHT22;5748;53.102;8.456;2023-07-02T00:56:20;20.00;63.80
11387;DHT22;5748;53.102;8.456;2023-07-02T00:58:49;20.00;63.80
11387;DHT22;5748;53.102;8.456;2023-07-02T01:01:17;20.00;63.80
11387;DHT22;5748;53.102;8.456;2023-07-02T01:03:55;20.10;63.80
11387;DHT22;5748;53.102;8.456;2023-07-02T01:06:25;20.10;63.90
11387;DHT22;5748;53.102;8.456;2023-07-02T01:08:57;20.10;63.80
11387;DHT22;5748;53.102;8.456;2023-07-02T01:11:27;20.10;63.80
11387;DHT22;5748;53.102;8.456;2023-07-02T01:14:00;20.10;63.80
11387;DHT22;5748;53.102;8.456;2023-07-02T01:16:30;20.10;63.70
11387;DHT22;5748;53.102;8.456;2023-07-02T01:19:00;20.10;63.70
11387;DHT22;5748;53.102;8.456;2023-07-02T01:21:32;20.10;63.70
11387;DHT22;5748;53.102;8.456;2023-07-02T01:23:59;20.10;63.60
11387;DHT22;5748;53.102;8.456;2023-07-02T01:26:29;20.10;63.10
11387;DHT22;5748;53.102;8.456;2023-07-02T01:28:59;20.10;63.60
11387;DHT22;5748;53.102;8.456;2023-07-02T01:31:26;20.10;63.50
11387;DHT22;5748;53.102;8.456;2023-07-02T01:33:53;20.10;63.30
11387;DHT22;5748;53.102;8.456;2023-07-02T01:36:19;20.10;63.30
11387;DHT22;5748;53.102;8.456;2023-07-02T01:38:48;20.10;63.20
11387;DHT22;5748;53.102;8.456;2023-07-02T01:41:15;20.00;63.10
11387;DHT22;5748;53.102;8.456;2023-07-02T01:43:42;20.00;63.80
11387;DHT22;5748;53.102;8.456;2023-07-02T01:46:09;20.00;63.00
11387;DHT22;5748;53.102;8.456;2023-07-02T01:48:35;20.00;62.90
11387;DHT22;5748;53.102;8.456;2023-07-02T01:51:02;19.90;62.80
11387;DHT22;5748;53.102;8.456;2023-07-02T01:53:29;19.90;62.90
11387;DHT22;5748;53.102;8.456;2023-07-02T01:55:57;19.80;62.80
11387;DHT22;5748;53.102;8.456;2023-07-02T01:58:25;19.80;62.90
11387;DHT22;5748;53.102;8.456;2023-07-02T02:00:52;19.70;62.70
11387;DHT22;5748;53.102;8.456;2023-07-02T02:03:19;19.70;62.70
11387;DHT22;5748;53.102;8.456;2023-07-02T02:05:45;19.60;62.70
11387;DHT22;5748;53.102;8.456;2023-07-02T02:08:12;19.60;62.80
11387;DHT22;5748;53.102;8.456;2023-07-02T02:10:39;19.60;62.90
11387;DHT22;5748;53.102;8.456;2023-07-02T02:13:08;19.50;62.70
11387;DHT22;5748;53.102;8.456;2023-07-02T02:15:35;19.50;62.70
11387;DHT22;5748;53.102;8.456;2023-07-02T02:18:02;19.50;62.70
11387;DHT22;5748;53.102;8.456;2023-07-02T02:20:29;19.40;62.70
11387;DHT22;5748;53.102;8.456;2023-07-02T02:22:56;19.50;62.70
11387;DHT22;5748;53.102;8.456;2023-07-02T02:25:23;19.30;63.30
11387;DHT22;5748;53.102;8.456;2023-07-02T02:27:50;19.30;62.70
11387;DHT22;5748;53.102;8.456;2023-07-02T02:30:18;19.30;62.80
11387;DHT22;5748;53.102;8.456;2023-07-02T02:32:45;19.20;62.90
11387;DHT22;5748;53.102;8.456;2023-07-02T02:35:12;19.30;63.10
11387;DHT22;5748;53.102;8.456;2023-07-02T02:37:40;19.20;63.10
11387;DHT22;5748;53.102;8.456;2023-07-02T02:43:48;19.70;63.90
11387;DHT22;5748;53.102;8.456;2023-07-02T02:46:21;19.10;63.20
11387;DHT22;5748;53.102;8.456;2023-07-02T02:48:48;19.10;63.10
11387;DHT22;5748;53.102;8.456;2023-07-02T02:51:15;19.10;63.00
11387;DHT22;5748;53.102;8.456;2023-07-02T02:53:42;19.00;62.90
11387;DHT22;5748;53.102;8.456;2023-07-02T02:56:09;19.00;62.90
11387;DHT22;5748;53.102;8.456;2023-07-02T02:58:35;19.00;63.00
11387;DHT22;5748;53.102;8.456;2023-07-02T03:01:02;19.90;63.90
11387;DHT22;5748;53.102;8.456;2023-07-02T03:03:38;18.90;63.00
11387;DHT22;5748;53.102;8.456;2023-07-02T03:06:11;18.90;63.10
11387;DHT22;5748;53.102;8.456;2023-07-02T03:08:40;18.80;63.00
11387;DHT22;5748;53.102;8.456;2023-07-02T03:11:07;18.80;62.90
11387;DHT22;5748;53.102;8.456;2023-07-02T03:13:34;18.80;63.00
11387;DHT22;5748;53.102;8.456;2023-07-02T03:16:01;18.70;62.90
11387;DHT22;5748;53.102;8.456;2023-07-02T03:18:28;18.80;63.00
11387;DHT22;5748;53.102;8.456;2023-07-02T03:20:56;18.60;62.90
11387;DHT22;5748;53.102;8.456;2023-07-02T03:23:23;18.70;63.10
11387;DHT22;5748;53.102;8.456;2023-07-02T03:25:50;18.60;63.10
11387;DHT22;5748;53.102;8.456;2023-07-02T03:28:17;18.60;63.10
11387;DHT22;5748;53.102;8.456;2023-07-02T03:30:44;18.60;63.10
11387;DHT22;5748;53.102;8.456;2023-07-02T03:33:10;18.50;63.10
11387;DHT22;5748;53.102;8.456;2023-07-02T03:35:37;18.50;63.10
11387;DHT22;5748;53.102;8.456;2023-07-02T03:38:05;18.50;63.10
11387;DHT22;5748;53.102;8.456;2023-07-02T03:40:32;18.90;63.60
11387;DHT22;5748;53.102;8.456;2023-07-02T03:42:59;18.50;63.20
11387;DHT22;5748;53.102;8.456;2023-07-02T03:45:26;18.40;63.20
11387;DHT22;5748;53.102;8.456;2023-07-02T03:47:53;18.40;63.20
11387;DHT22;5748;53.102;8.456;2023-07-02T03:50:20;18.40;63.20
11387;DHT22;5748;53.102;8.456;2023-07-02T03:52:48;18.40;63.30
11387;DHT22;5748;53.102;8.456;2023-07-02T03:55:16;17.40;62.20
11387;DHT22;5748;53.102;8.456;2023-07-02T03:57:43;18.40;63.40
11387;DHT22;5748;53.102;8.456;2023-07-02T04:00:10;18.40;63.30
11387;DHT22;5748;53.102;8.456;2023-07-02T04:02:37;18.40;63.40
11387;DHT22;5748;53.102;8.456;2023-07-02T04:05:05;18.40;63.40
11387;DHT22;5748;53.102;8.456;2023-07-02T04:07:32;18.40;63.40
11387;DHT22;5748;53.102;8.456;2023-07-02T04:09:59;18.40;63.40
11387;DHT22;5748;53.102;8.456;2023-07-02T04:12:28;18.40;63.40
11387;DHT22;5748;53.102;8.456;2023-07-02T04:14:55;18.40;63.50
11387;DHT22;5748;53.102;8.456;2023-07-02T04:17:21;18.40;63.50
11387;DHT22;5748;53.102;8.456;2023-07-02T04:19:48;18.40;63.40
11387;DHT22;5748;53.102;8.456;2023-07-02T04:22:15;18.30;63.40
11387;DHT22;5748;53.102;8.456;2023-07-02T04:24:43;18.70;63.80
11387;DHT22;5748;53.102;8.456;2023-07-02T04:27:10;18.40;63.60
11387;DHT22;5748;53.102;8.456;2023-07-02T04:29:40;18.40;63.60
11387;DHT22;5748;53.102;8.456;2023-07-02T04:32:07;18.40;63.60
11387;DHT22;5748;53.102;8.456;2023-07-02T04:34:34;18.40;63.70
11387;DHT22;5748;53.102;8.456;2023-07-02T04:37:02;18.40;63.60
11387;DHT22;5748;53.102;8.456;2023-07-02T04:39:30;18.40;63.70
11387;DHT22;5748;53.102;8.456;2023-07-02T04:41:57;18.40;63.60
11387;DHT22;5748;53.102;8.456;2023-07-02T04:44:24;18.40;63.70
11387;DHT22;5748;53.102;8.456;2023-07-02T04:46:56;18.50;63.80
11387;DHT22;5748;53.102;8.456;2023-07-02T04:49:24;18.50;63.90
11387;DHT22;5748;53.102;8.456;2023-07-02T04:51:51;18.50;63.80
11387;DHT22;5748;53.102;8.456;2023-07-02T04:54:19;18.50;63.70
11387;DHT22;5748;53.102;8.456;2023-07-02T04:56:47;18.60;63.90
11387;DHT22;5748;53.102;8.456;2023-07-02T04:59:14;18.60;63.80
11387;DHT22;5748;53.102;8.456;2023-07-02T05:01:41;18.60;63.80
11387;DHT22;5748;53.102;8.456;2023-07-02T05:04:11;18.70;63.90
11387;DHT22;5748;53.102;8.456;2023-07-02T05:06:38;18.70;63.80
11387;DHT22;5748;53.102;8.456;2023-07-02T05:09:05;20.00;65.10
11387;DHT22;5748;53.102;8.456;2023-07-02T05:11:32;18.80;63.80
11387;DHT22;5748;53.102;8.456;2023-07-02T05:13:59;18.80;63.70
11387;DHT22;5748;53.102;8.456;2023-07-02T05:16:25;18.90;63.40
11387;DHT22;5748;53.102;8.456;2023-07-02T05:18:52;18.90;63.90
11387;DHT22;5748;53.102;8.456;2023-07-02T05:21:22;18.90;63.90
11387;DHT22;5748;53.102;8.456;2023-07-02T05:23:49;19.00;64.20
11387;DHT22;5748;53.102;8.456;2023-07-02T05:26:16;19.10;63.80
11387;DHT22;5748;53.102;8.456;2023-07-02T05:28:43;19.10;64.30
11387;DHT22;5748;53.102;8.456;2023-07-02T05:31:10;19.20;64.40
11387;DHT22;5748;53.102;8.456;2023-07-02T05:33:38;19.30;64.50
11387;DHT22;5748;53.102;8.456;2023-07-02T05:36:05;19.40;64.70
11387;DHT22;5748;53.102;8.456;2023-07-02T05:38:33;19.50;64.80
11387;DHT22;5748;53.102;8.456;2023-07-02T05:41:01;19.60;64.70
11387;DHT22;5748;53.102;8.456;2023-07-02T05:43:28;19.80;65.00
11387;DHT22;5748;53.102;8.456;2023-07-02T05:45:58;19.90;64.90
11387;DHT22;5748;53.102;8.456;2023-07-02T05:48:25;20.00;64.90
11387;DHT22;5748;53.102;8.456;2023-07-02T05:50:53;20.20;65.20
11387;DHT22;5748;53.102;8.456;2023-07-02T05:53:20;20.40;65.40
11387;DHT22;5748;53.102;8.456;2023-07-02T05:55:48;20.60;65.30
11387;DHT22;5748;53.102;8.456;2023-07-02T05:58:15;20.80;65.40
11387;DHT22;5748;53.102;8.456;2023-07-02T06:00:42;21.00;65.40
11387;DHT22;5748;53.102;8.456;2023-07-02T06:03:14;21.30;65.30
11387;DHT22;5748;53.102;8.456;2023-07-02T06:05:46;21.60;65.20
11387;DHT22;5748;53.102;8.456;2023-07-02T06:08:14;21.80;65.00
11387;DHT22;5748;53.102;8.456;2023-07-02T06:10:41;22.20;65.10
11387;DHT22;5748;53.102;8.456;2023-07-02T06:13:10;22.40;64.50
11387;DHT22;5748;53.102;8.456;2023-07-02T06:15:37;22.70;64.00
11387;DHT22;5748;53.102;8.456;2023-07-02T06:18:04;23.00;63.90
11387;DHT22;5748;53.102;8.456;2023-07-02T06:20:31;23.20;63.70
11387;DHT22;5748;53.102;8.456;2023-07-02T06:22:58;23.50;63.30
11387;DHT22;5748;53.102;8.456;2023-07-02T06:25:25;23.70;63.10
11387;DHT22;5748;53.102;8.456;2023-07-02T06:27:52;23.80;63.00
11387;DHT22;5748;53.102;8.456;2023-07-02T06:30:22;24.10;62.30
11387;DHT22;5748;53.102;8.456;2023-07-02T06:32:49;24.20;61.30
11387;DHT22;5748;53.102;8.456;2023-07-02T06:35:16;24.20;60.80
11387;DHT22;5748;53.102;8.456;2023-07-02T06:37:43;24.10;60.20
11387;DHT22;5748;53.102;8.456;2023-07-02T06:40:11;24.00;59.90
11387;DHT22;5748;53.102;8.456;2023-07-02T06:42:38;23.90;60.00
11387;DHT22;5748;53.102;8.456;2023-07-02T06:45:06;23.80;60.20
11387;DHT22;5748;53.102;8.456;2023-07-02T06:47:34;24.00;61.30
11387;DHT22;5748;53.102;8.456;2023-07-02T06:50:01;24.10;61.70
11387;DHT22;5748;53.102;8.456;2023-07-02T06:52:28;24.40;62.40
11387;DHT22;5748;53.102;8.456;2023-07-02T06:54:55;24.70;62.30
11387;DHT22;5748;53.102;8.456;2023-07-02T06:57:22;25.00;62.10
11387;DHT22;5748;53.102;8.456;2023-07-02T06:59:49;25.40;61.90
11387;DHT22;5748;53.102;8.456;2023-07-02T07:02:16;25.60;60.70
11387;DHT22;5748;53.102;8.456;2023-07-02T07:04:44;25.80;59.70
11387;DHT22;5748;53.102;8.456;2023-07-02T07:07:11;25.70;59.30
11387;DHT22;5748;53.102;8.456;2023-07-02T07:09:38;25.70;58.40
11387;DHT22;5748;53.102;8.456;2023-07-02T07:12:06;25.70;58.30
11387;DHT22;5748;53.102;8.456;2023-07-02T07:14:33;25.80;58.30
11387;DHT22;5748;53.102;8.456;2023-07-02T07:17:00;25.80;57.80
11387;DHT22;5748;53.102;8.456;2023-07-02T07:19:28;25.70;57.50
11387;DHT22;5748;53.102;8.456;2023-07-02T07:21:56;25.60;57.20
11387;DHT22;5748;53.102;8.456;2023-07-02T07:24:23;25.50;56.60
11387;DHT22;5748;53.102;8.456;2023-07-02T07:26:50;25.20;56.70
11387;DHT22;5748;53.102;8.456;2023-07-02T07:29:17;25.00;57.00
11387;DHT22;5748;53.102;8.456;2023-07-02T07:31:44;24.80;56.90
11387;DHT22;5748;53.102;8.456;2023-07-02T07:34:11;24.60;57.40
11387;DHT22;5748;53.102;8.456;2023-07-02T07:36:38;26.10;58.50
11387;DHT22;5748;53.102;8.456;2023-07-02T07:39:06;24.30;57.30
11387;DHT22;5748;53.102;8.456;2023-07-02T07:41:33;24.20;57.20
11387;DHT22;5748;53.102;8.456;2023-07-02T07:44:00;24.10;57.40
11387;DHT22;5748;53.102;8.456;2023-07-02T07:46:27;24.00;57.60
11387;DHT22;5748;53.102;8.456;2023-07-02T07:48:54;24.10;58.50
11387;DHT22;5748;53.102;8.456;2023-07-02T07:51:21;24.30;58.80
11387;DHT22;5748;53.102;8.456;2023-07-02T07:53:48;26.00;60.00
11387;DHT22;5748;53.102;8.456;2023-07-02T07:56:16;24.90;59.90
11387;DHT22;5748;53.102;8.456;2023-07-02T07:58:43;25.30;60.10
11387;DHT22;5748;53.102;8.456;2023-07-02T08:01:10;25.80;59.70
11387;DHT22;5748;53.102;8.456;2023-07-02T08:03:37;26.20;59.00
11387;DHT22;5748;53.102;8.456;2023-07-02T08:06:05;26.60;58.80
11387;DHT22;5748;53.102;8.456;2023-07-02T08:08:32;26.80;57.80
11387;DHT22;5748;53.102;8.456;2023-07-02T08:10:59;27.00;56.30
11387;DHT22;5748;53.102;8.456;2023-07-02T08:13:27;26.90;56.30
11387;DHT22;5748;53.102;8.456;2023-07-02T08:15:54;26.90;55.80
11387;DHT22;5748;53.102;8.456;2023-07-02T08:18:21;27.00;56.30
11387;DHT22;5748;53.102;8.456;2023-07-02T08:20:48;27.20;56.70
11387;DHT22;5748;53.102;8.456;2023-07-02T08:23:14;27.40;56.30
11387;DHT22;5748;53.102;8.456;2023-07-02T08:25:41;27.50;55.20
11387;DHT22;5748;53.102;8.456;2023-07-02T08:28:08;27.50;55.00
11387;DHT22;5748;53.102;8.456;2023-07-02T08:30:36;27.60;55.30
11387;DHT22;5748;53.102;8.456;2023-07-02T08:33:03;27.70;56.20
11387;DHT22;5748;53.102;8.456;2023-07-02T08:35:30;27.90;55.80
11387;DHT22;5748;53.102;8.456;2023-07-02T08:37:57;28.10;55.40
11387;DHT22;5748;53.102;8.456;2023-07-02T08:40:24;28.10;53.90
11387;DHT22;5748;53.102;8.456;2023-07-02T08:42:51;28.20;54.20
11387;DHT22;5748;53.102;8.456;2023-07-02T08:45:18;28.30;54.70
11387;DHT22;5748;53.102;8.456;2023-07-02T08:47:48;28.50;55.60
11387;DHT22;5748;53.102;8.456;2023-07-02T08:50:16;28.80;55.40
11387;DHT22;5748;53.102;8.456;2023-07-02T08:52:43;29.30;55.40
11387;DHT22;5748;53.102;8.456;2023-07-02T08:55:10;29.60;55.40
11387;DHT22;5748;53.102;8.456;2023-07-02T08:57:37;30.00;55.10
11387;DHT22;5748;53.102;8.456;2023-07-02T09:00:08;30.40;54.90
11387;DHT22;5748;53.102;8.456;2023-07-02T09:02:36;30.50;53.00
11387;DHT22;5748;53.102;8.456;2023-07-02T09:05:05;30.60;53.10
11387;DHT22;5748;53.102;8.456;2023-07-02T09:07:43;30.70;52.40
11387;DHT22;5748;53.102;8.456;2023-07-02T09:10:11;30.90;51.70
11387;DHT22;5748;53.102;8.456;2023-07-02T09:12:38;31.00;52.80
11387;DHT22;5748;53.102;8.456;2023-07-02T09:15:08;31.00;51.70
11387;DHT22;5748;53.102;8.456;2023-07-02T09:17:35;31.00;51.30
11387;DHT22;5748;53.102;8.456;2023-07-02T09:20:06;30.90;50.90
11387;DHT22;5748;53.102;8.456;2023-07-02T09:22:33;30.70;49.60
11387;DHT22;5748;53.102;8.456;2023-07-02T09:25:01;30.40;49.20
11387;DHT22;5748;53.102;8.456;2023-07-02T09:27:35;29.90;48.90
11387;DHT22;5748;53.102;8.456;2023-07-02T09:30:10;29.50;49.30
11387;DHT22;5748;53.102;8.456;2023-07-02T09:32:39;29.30;50.40
11387;DHT22;5748;53.102;8.456;2023-07-02T09:35:08;29.40;52.10
11387;DHT22;5748;53.102;8.456;2023-07-02T09:37:35;29.50;52.20
11387;DHT22;5748;53.102;8.456;2023-07-02T09:40:03;29.80;52.70
11387;DHT22;5748;53.102;8.456;2023-07-02T09:42:35;30.10;52.40
11387;DHT22;5748;53.102;8.456;2023-07-02T09:45:02;30.40;52.50
11387;DHT22;5748;53.102;8.456;2023-07-02T09:47:35;30.80;52.80
11387;DHT22;5748;53.102;8.456;2023-07-02T09:50:12;31.30;51.50
11387;DHT22;5748;53.102;8.456;2023-07-02T09:52:42;31.70;51.30
11387;DHT22;5748;53.102;8.456;2023-07-02T09:55:12;32.10;51.40
11387;DHT22;5748;53.102;8.456;2023-07-02T09:57:39;32.50;50.70
11387;DHT22;5748;53.102;8.456;2023-07-02T10:00:08;32.80;49.30
11387;DHT22;5748;53.102;8.456;2023-07-02T10:02:36;32.90;48.20
11387;DHT22;5748;53.102;8.456;2023-07-02T10:05:04;32.70;47.30
11387;DHT22;5748;53.102;8.456;2023-07-02T10:07:32;32.50;46.50
11387;DHT22;5748;53.102;8.456;2023-07-02T10:10:00;32.10;45.70
11387;DHT22;5748;53.102;8.456;2023-07-02T10:12:28;31.60;45.60
11387;DHT22;5748;53.102;8.456;2023-07-02T10:14:57;31.00;45.20
11387;DHT22;5748;53.102;8.456;2023-07-02T10:17:26;30.50;45.30
11387;DHT22;5748;53.102;8.456;2023-07-02T10:19:57;30.00;45.20
11387;DHT22;5748;53.102;8.456;2023-07-02T10:22:25;29.40;45.70
11387;DHT22;5748;53.102;8.456;2023-07-02T10:24:54;29.00;46.30
11387;DHT22;5748;53.102;8.456;2023-07-02T10:27:35;28.80;46.30
11387;DHT22;5748;53.102;8.456;2023-07-02T10:30:04;28.70;46.80
11387;DHT22;5748;53.102;8.456;2023-07-02T10:32:33;28.80;48.60
11387;DHT22;5748;53.102;8.456;2023-07-02T10:35:01;29.00;49.50
11387;DHT22;5748;53.102;8.456;2023-07-02T10:37:35;29.30;49.20
11387;DHT22;5748;53.102;8.456;2023-07-02T10:40:06;29.50;47.60
11387;DHT22;5748;53.102;8.456;2023-07-02T10:42:44;29.50;46.10
11387;DHT22;5748;53.102;8.456;2023-07-02T10:45:12;29.30;44.20
11387;DHT22;5748;53.102;8.456;2023-07-02T10:47:40;29.10;45.20
11387;DHT22;5748;53.102;8.456;2023-07-02T10:50:15;28.70;45.10
11387;DHT22;5748;53.102;8.456;2023-07-02T10:52:42;28.50;45.90
11387;DHT22;5748;53.102;8.456;2023-07-02T10:55:11;28.50;47.50
11387;DHT22;5748;53.102;8.456;2023-07-02T10:57:43;28.80;48.50
11387;DHT22;5748;53.102;8.456;2023-07-02T11:00:11;29.10;48.90
11387;DHT22;5748;53.102;8.456;2023-07-02T11:02:38;29.50;49.40
11387;DHT22;5748;53.102;8.456;2023-07-02T11:05:06;30.00;49.40
11387;DHT22;5748;53.102;8.456;2023-07-02T11:07:37;30.40;48.70
11387;DHT22;5748;53.102;8.456;2023-07-02T11:10:05;30.70;47.50
11387;DHT22;5748;53.102;8.456;2023-07-02T11:12:33;30.80;46.50
11387;DHT22;5748;53.102;8.456;2023-07-02T11:15:10;30.80;45.00
11387;DHT22;5748;53.102;8.456;2023-07-02T11:17:38;30.60;43.20
11387;DHT22;5748;53.102;8.456;2023-07-02T11:20:07;30.20;44.10
11387;DHT22;5748;53.102;8.456;2023-07-02T11:22:36;29.90;43.90
11387;DHT22;5748;53.102;8.456;2023-07-02T11:25:12;29.60;43.80
11387;DHT22;5748;53.102;8.456;2023-07-02T11:27:40;29.10;43.10
11387;DHT22;5748;53.102;8.456;2023-07-02T11:30:08;28.80;44.00
11387;DHT22;5748;53.102;8.456;2023-07-02T11:32:47;28.50;44.70
11387;DHT22;5748;53.102;8.456;2023-07-02T11:35:15;28.30;44.60
11387;DHT22;5748;53.102;8.456;2023-07-02T11:37:43;28.20;46.00
11387;DHT22;5748;53.102;8.456;2023-07-02T11:40:11;28.40;47.00
11387;DHT22;5748;53.102;8.456;2023-07-02T11:42:40;28.60;47.50
11387;DHT22;5748;53.102;8.456;2023-07-02T11:45:08;28.80;47.60
11387;DHT22;5748;53.102;8.456;2023-07-02T11:47:35;29.20;47.60
11387;DHT22;5748;53.102;8.456;2023-07-02T11:50:05;29.60;47.90
11387;DHT22;5748;53.102;8.456;2023-07-02T11:52:32;29.90;47.60
11387;DHT22;5748;53.102;8.456;2023-07-02T11:54:59;30.40;47.60
11387;DHT22;5748;53.102;8.456;2023-07-02T11:57:26;30.80;47.20
11387;DHT22;5748;53.102;8.456;2023-07-02T11:59:54;31.20;46.30
11387;DHT22;5748;53.102;8.456;2023-07-02T12:02:21;31.50;45.60
11387;DHT22;5748;53.102;8.456;2023-07-02T12:04:48;31.70;45.30
11387;DHT22;5748;53.102;8.456;2023-07-02T12:07:15;31.90;45.30
11387;DHT22;5748;53.102;8.456;2023-07-02T12:09:42;32.20;45.00
11387;DHT22;5748;53.102;8.456;2023-07-02T12:12:10;32.30;44.30
11387;DHT22;5748;53.102;8.456;2023-07-02T12:14:37;32.30;43.80
11387;DHT22;5748;53.102;8.456;2023-07-02T12:17:08;32.40;44.00
11387;DHT22;5748;53.102;8.456;2023-07-02T12:19:37;32.50;44.00
11387;DHT22;5748;53.102;8.456;2023-07-02T12:22:05;32.50;43.10
11387;DHT22;5748;53.102;8.456;2023-07-02T12:24:32;32.30;42.00
11387;DHT22;5748;53.102;8.456;2023-07-02T12:26:59;32.10;41.60
11387;DHT22;5748;53.102;8.456;2023-07-02T12:29:25;31.70;41.40
11387;DHT22;5748;53.102;8.456;2023-07-02T12:31:53;31.40;41.80
11387;DHT22;5748;53.102;8.456;2023-07-02T12:34:22;31.20;42.40
11387;DHT22;5748;53.102;8.456;2023-07-02T12:36:48;31.00;42.60
11387;DHT22;5748;53.102;8.456;2023-07-02T12:39:15;31.00;42.70
11387;DHT22;5748;53.102;8.456;2023-07-02T12:41:42;30.70;42.00
11387;DHT22;5748;53.102;8.456;2023-07-02T12:44:09;30.60;41.80
11387;DHT22;5748;53.102;8.456;2023-07-02T12:46:36;30.20;41.10
11387;DHT22;5748;53.102;8.456;2023-07-02T12:49:03;29.80;40.90
11387;DHT22;5748;53.102;8.456;2023-07-02T12:51:31;29.40;41.00
11387;DHT22;5748;53.102;8.456;2023-07-02T12:53:58;28.90;41.10
11387;DHT22;5748;53.102;8.456;2023-07-02T12:56:26;28.60;41.30
11387;DHT22;5748;53.102;8.456;2023-07-02T12:58:53;28.30;41.50
11387;DHT22;5748;53.102;8.456;2023-07-02T13:01:19;27.90;42.00
11387;DHT22;5748;53.102;8.456;2023-07-02T13:03:47;27.70;42.60
11387;DHT22;5748;53.102;8.456;2023-07-02T13:06:14;27.50;42.70
11387;DHT22;5748;53.102;8.456;2023-07-02T13:08:42;27.40;42.80
11387;DHT22;5748;53.102;8.456;2023-07-02T13:11:09;27.10;42.80
11387;DHT22;5748;53.102;8.456;2023-07-02T13:13:36;27.70;43.10
11387;DHT22;5748;53.102;8.456;2023-07-02T13:16:03;27.00;42.70
11387;DHT22;5748;53.102;8.456;2023-07-02T13:18:30;26.90;42.70
11387;DHT22;5748;53.102;8.456;2023-07-02T13:20:57;26.80;42.70
11387;DHT22;5748;53.102;8.456;2023-07-02T13:23:24;26.60;42.70
11387;DHT22;5748;53.102;8.456;2023-07-02T13:25:52;26.60;42.80
11387;DHT22;5748;53.102;8.456;2023-07-02T13:28:20;26.40;43.00
11387;DHT22;5748;53.102;8.456;2023-07-02T13:30:47;26.40;43.20
11387;DHT22;5748;53.102;8.456;2023-07-02T13:33:14;26.40;43.40
11387;DHT22;5748;53.102;8.456;2023-07-02T13:35:41;26.20;43.20
11387;DHT22;5748;53.102;8.456;2023-07-02T13:38:09;26.20;43.10
11387;DHT22;5748;53.102;8.456;2023-07-02T13:40:36;26.20;43.20
11387;DHT22;5748;53.102;8.456;2023-07-02T13:43:04;26.20;43.40
11387;DHT22;5748;53.102;8.456;2023-07-02T13:45:31;26.20;44.20
11387;DHT22;5748;53.102;8.456;2023-07-02T13:47:58;26.10;43.30
11387;DHT22;5748;53.102;8.456;2023-07-02T13:50:25;26.10;43.30
11387;DHT22;5748;53.102;8.456;2023-07-02T13:52:52;26.10;43.20
11387;DHT22;5748;53.102;8.456;2023-07-02T13:55:19;26.00;43.50
11387;DHT22;5748;53.102;8.456;2023-07-02T13:57:52;26.00;43.50
11387;DHT22;5748;53.102;8.456;2023-07-02T14:00:21;26.00;43.30
11387;DHT22;5748;53.102;8.456;2023-07-02T14:02:48;26.00;43.10
11387;DHT22;5748;53.102;8.456;2023-07-02T14:05:15;25.90;42.90
11387;DHT22;5748;53.102;8.456;2023-07-02T14:07:42;25.80;42.90
11387;DHT22;5748;53.102;8.456;2023-07-02T14:10:10;25.70;42.80
11387;DHT22;5748;53.102;8.456;2023-07-02T14:12:37;25.50;42.90
11387;DHT22;5748;53.102;8.456;2023-07-02T14:15:05;25.40;43.20
11387;DHT22;5748;53.102;8.456;2023-07-02T14:17:35;25.30;43.30
11387;DHT22;5748;53.102;8.456;2023-07-02T14:20:04;25.30;43.40
11387;DHT22;5748;53.102;8.456;2023-07-02T14:22:33;25.30;43.80
11387;DHT22;5748;53.102;8.456;2023-07-02T14:25:00;25.30;43.70
11387;DHT22;5748;53.102;8.456;2023-07-02T14:27:27;25.30;43.80
11387;DHT22;5748;53.102;8.456;2023-07-02T14:29:54;25.30;43.70
11387;DHT22;5748;53.102;8.456;2023-07-02T14:32:21;25.30;43.70
11387;DHT22;5748;53.102;8.456;2023-07-02T14:34:49;25.30;43.70
11387;DHT22;5748;53.102;8.456;2023-07-02T14:37:16;25.30;43.60
11387;DHT22;5748;53.102;8.456;2023-07-02T14:39:43;25.30;43.60
11387;DHT22;5748;53.102;8.456;2023-07-02T14:42:10;25.30;43.60
11387;DHT22;5748;53.102;8.456;2023-07-02T14:44:37;25.10;43.60
11387;DHT22;5748;53.102;8.456;2023-07-02T14:47:05;25.10;43.50
11387;DHT22;5748;53.102;8.456;2023-07-02T14:49:32;25.10;43.30
11387;DHT22;5748;53.102;8.456;2023-07-02T14:52:00;25.00;43.20
11387;DHT22;5748;53.102;8.456;2023-07-02T14:54:27;24.90;43.20
11387;DHT22;5748;53.102;8.456;2023-07-02T14:56:54;24.80;43.30
11387;DHT22;5748;53.102;8.456;2023-07-02T14:59:20;24.70;43.40
11387;DHT22;5748;53.102;8.456;2023-07-02T15:01:47;24.60;44.30
11387;DHT22;5748;53.102;8.456;2023-07-02T15:04:14;24.70;43.90
11387;DHT22;5748;53.102;8.456;2023-07-02T15:06:41;24.60;43.90
11387;DHT22;5748;53.102;8.456;2023-07-02T15:09:09;24.60;43.70
11387;DHT22;5748;53.102;8.456;2023-07-02T15:11:36;24.70;43.80
11387;DHT22;5748;53.102;8.456;2023-07-02T15:14:03;24.40;43.60
11387;DHT22;5748;53.102;8.456;2023-07-02T15:16:31;24.50;43.80
11387;DHT22;5748;53.102;8.456;2023-07-02T15:18:58;24.50;43.80
11387;DHT22;5748;53.102;8.456;2023-07-02T15:21:25;24.40;43.80
11387;DHT22;5748;53.102;8.456;2023-07-02T15:23:52;24.40;43.90
11387;DHT22;5748;53.102;8.456;2023-07-02T15:26:20;24.40;43.90
11387;DHT22;5748;53.102;8.456;2023-07-02T15:28:47;24.40;43.80
11387;DHT22;5748;53.102;8.456;2023-07-02T15:31:14;24.40;43.80
11387;DHT22;5748;53.102;8.456;2023-07-02T15:33:41;24.40;43.90
11387;DHT22;5748;53.102;8.456;2023-07-02T15:36:09;23.80;43.40
11387;DHT22;5748;53.102;8.456;2023-07-02T15:38:36;24.40;43.90
11387;DHT22;5748;53.102;8.456;2023-07-02T15:41:05;24.40;43.90
11387;DHT22;5748;53.102;8.456;2023-07-02T15:43:35;24.40;43.90
11387;DHT22;5748;53.102;8.456;2023-07-02T15:46:03;24.40;43.90
11387;DHT22;5748;53.102;8.456;2023-07-02T15:48:30;24.40;44.10
11387;DHT22;5748;53.102;8.456;2023-07-02T15:50:57;24.40;44.20
11387;DHT22;5748;53.102;8.456;2023-07-02T15:53:24;25.90;45.30